createdAt,value
2023-02-15T00:00:29.095Z,0.20
2023-02-15T00:05:38.385Z,0.20
2023-02-15T00:10:47.059Z,0.10
2023-02-15T00:15:53.404Z,0.20
2023-02-15T00:21:00.659Z,0.10
2023-02-15T00:26:14.371Z,0.10
2023-02-15T00:31:20.737Z,0.10
2023-02-15T00:36:28.486Z,0.10
2023-02-15T00:41:35.138Z,0.00
2023-02-15T00:46:41.715Z,0.00
2023-02-15T00:51:52.712Z,0.00
2023-02-15T00:57:00.291Z,-0.10
2023-02-15T01:02:11.698Z,0.00
2023-02-15T01:07:21.726Z,-0.10
2023-02-15T01:12:28.558Z,0.00
2023-02-15T01:17:34.700Z,-0.10
2023-02-15T01:22:43.837Z,0.00
2023-02-15T01:27:55.731Z,-0.40
2023-02-15T01:33:07.725Z,-0.50
2023-02-15T01:38:14.688Z,-0.60
2023-02-15T01:43:22.748Z,-0.60
2023-02-15T01:48:35.589Z,-0.60
2023-02-15T01:53:46.805Z,-0.50
2023-02-15T01:58:57.070Z,-0.40
2023-02-15T02:04:10.591Z,-0.50
2023-02-15T02:09:20.816Z,-0.50
2023-02-15T02:14:30.200Z,-0.50
2023-02-15T02:19:50.592Z,-0.40
2023-02-15T02:25:28.420Z,-0.40
2023-02-15T02:30:57.745Z,-0.50
2023-02-15T02:36:19.458Z,-0.50
2023-02-15T02:42:01.190Z,-0.40
2023-02-15T02:47:25.180Z,-0.50
2023-02-15T02:52:51.127Z,-0.50
2023-02-15T02:58:25.133Z,-0.40
2023-02-15T03:09:18.192Z,-0.40
2023-02-15T03:14:23.859Z,-0.30
2023-02-15T03:19:37.451Z,-0.20
2023-02-15T03:25:13.574Z,-0.20
2023-02-15T03:30:24.772Z,-0.20
2023-02-15T03:35:36.945Z,-0.30
2023-02-15T03:41:06.005Z,-0.40
2023-02-15T03:46:35.235Z,-0.30
2023-02-15T03:51:48.878Z,-0.30
2023-02-15T03:56:58.311Z,-0.10
2023-02-15T04:02:20.387Z,-0.10
2023-02-15T04:07:27.425Z,-0.10
2023-02-15T04:12:36.797Z,0.00
2023-02-15T04:17:42.412Z,0.00
2023-02-15T04:23:08.946Z,0.00
2023-02-15T04:28:15.176Z,0.00
2023-02-15T04:33:22.479Z,0.00
2023-02-15T04:38:29.733Z,-0.10
2023-02-15T04:43:35.333Z,-0.10
2023-02-15T04:48:46.642Z,-0.10
2023-02-15T04:53:58.965Z,-0.10
2023-02-15T04:59:09.398Z,0.00
2023-02-15T05:04:15.796Z,0.10
2023-02-15T05:09:21.221Z,0.10
2023-02-15T05:14:30.415Z,0.10
2023-02-15T05:19:36.914Z,0.10
2023-02-15T05:25:04.332Z,0.10
2023-02-15T05:30:23.464Z,0.10
2023-02-15T05:35:29.273Z,0.10
2023-02-15T05:40:39.485Z,0.10
2023-02-15T05:45:53.435Z,0.10
2023-02-15T05:51:02.730Z,0.10
2023-02-15T05:56:10.617Z,0.20
2023-02-15T06:01:22.794Z,0.20
2023-02-15T06:06:28.172Z,0.10
2023-02-15T06:11:33.456Z,0.20
2023-02-15T06:16:38.760Z,0.30
2023-02-15T06:21:44.092Z,0.30
2023-02-15T06:26:49.326Z,0.30
2023-02-15T06:31:54.710Z,0.40
2023-02-15T06:37:00.122Z,0.40
2023-02-15T06:42:05.672Z,0.50
2023-02-15T06:47:21.081Z,0.50
2023-02-15T06:52:26.866Z,0.50
2023-02-15T06:57:33.533Z,0.60
2023-02-15T07:02:38.885Z,0.60
2023-02-15T07:07:44.283Z,0.60
2023-02-15T07:12:51.604Z,0.60
2023-02-15T07:18:00.427Z,0.70
2023-02-15T07:23:10.443Z,0.70
2023-02-15T07:28:23.161Z,0.70
2023-02-15T07:33:31.334Z,0.80
2023-02-15T07:38:39.146Z,0.90
2023-02-15T07:43:47.112Z,0.90
2023-02-15T16:02:42.930Z,3.50
2023-02-15T16:07:48.865Z,3.50
2023-02-15T16:12:55.913Z,3.50
2023-02-15T16:18:03.622Z,3.50
2023-02-15T16:23:28.708Z,3.50
2023-02-15T16:28:34.078Z,3.50
2023-02-15T16:33:41.255Z,3.40
2023-02-15T16:38:49.463Z,3.40
2023-02-15T16:43:56.530Z,3.40
2023-02-15T16:49:04.913Z,3.40
2023-02-15T16:54:17.597Z,3.30
2023-02-15T16:59:34.658Z,3.30
2023-02-15T17:04:40.418Z,3.30
2023-02-15T17:10:00.373Z,3.30
2023-02-15T17:15:06.010Z,3.30
2023-02-15T17:20:19.602Z,3.30
2023-02-15T17:25:37.299Z,3.30
2023-02-15T17:30:43.548Z,3.30
2023-02-15T17:36:06.647Z,3.20
2023-02-15T17:41:11.924Z,3.20
2023-02-15T17:46:18.869Z,3.30
2023-02-15T17:51:25.239Z,3.30
2023-02-15T17:56:30.503Z,3.20
2023-02-15T18:01:56.405Z,3.30
2023-02-15T18:07:20.225Z,3.20
2023-02-15T18:12:31.183Z,3.10
2023-02-15T18:17:39.282Z,3.10
2023-02-15T18:22:48.079Z,3.00
2023-02-15T18:27:55.024Z,3.00
2023-02-15T18:33:01.624Z,3.00
2023-02-15T18:38:07.507Z,3.00
2023-02-15T18:43:15.467Z,3.00
2023-02-15T18:48:20.737Z,2.90
2023-02-15T18:53:26.046Z,2.80
2023-02-15T18:58:31.139Z,2.70
2023-02-15T19:03:36.713Z,2.50
2023-02-15T19:08:42.123Z,2.50
2023-02-15T19:13:49.230Z,2.40
2023-02-15T19:18:54.457Z,2.20
2023-02-15T19:24:02.761Z,2.10
2023-02-15T19:29:08.532Z,2.00
2023-02-15T19:34:19.311Z,2.00
2023-02-15T19:39:28.170Z,1.90
2023-02-15T19:44:33.595Z,1.80
2023-02-15T19:49:38.880Z,1.80
2023-02-15T19:54:46.191Z,1.70
2023-02-15T19:59:51.250Z,1.70
2023-02-15T20:04:57.583Z,1.60
2023-02-15T20:10:03.745Z,1.60
2023-02-15T20:15:20.987Z,1.50
2023-02-15T20:20:29.319Z,1.40
2023-02-15T20:25:34.806Z,1.20
2023-02-15T20:30:40.056Z,1.20
2023-02-15T20:35:46.247Z,1.20
2023-02-15T20:41:09.825Z,1.10
2023-02-15T20:46:15.078Z,1.10
2023-02-15T20:51:22.045Z,1.00
2023-02-15T20:56:27.437Z,0.90
2023-02-15T21:01:32.890Z,0.90
2023-02-15T21:06:38.104Z,0.80
2023-02-15T21:11:45.336Z,0.80
2023-02-15T21:16:52.560Z,0.80
2023-02-15T21:21:59.817Z,0.70
2023-02-15T21:27:07.436Z,0.70
2023-02-15T21:32:12.795Z,0.70
2023-02-15T21:37:24.190Z,0.60
2023-02-15T21:42:47.470Z,0.50
2023-02-15T21:47:52.947Z,0.50
2023-02-15T21:52:58.994Z,0.50
2023-02-15T21:58:04.927Z,0.50
2023-02-15T22:03:13.074Z,0.50
2023-02-15T22:08:18.561Z,0.40
2023-02-15T22:13:29.883Z,0.40
2023-02-15T22:18:36.764Z,0.30
2023-02-15T22:23:41.942Z,0.30
2023-02-15T22:28:47.187Z,0.10
2023-02-15T22:33:52.464Z,0.00
2023-02-15T22:38:58.715Z,0.00
2023-02-15T22:44:03.937Z,-0.10
2023-02-15T22:49:12.144Z,-0.10
2023-02-15T22:54:18.703Z,-0.20
2023-02-15T22:59:29.227Z,-0.20
2023-02-15T23:04:34.674Z,-0.20
2023-02-15T23:09:39.992Z,-0.20
2023-02-15T23:14:45.547Z,-0.20
2023-02-15T23:19:50.897Z,-0.20
2023-02-15T23:24:56.165Z,-0.20
2023-02-15T23:30:02.631Z,-0.30
2023-02-15T23:35:19.762Z,-0.40
2023-02-15T23:40:45.583Z,-0.40
2023-02-15T23:45:51.676Z,-0.40
2023-02-15T23:50:57.031Z,-0.50
2023-02-15T23:56:02.909Z,-0.50
